Time;durP1;ratioP1;P1;durP2;ratioP2;P2;SDS_P1;SDS_P2;PMS_P1;PMS_P2;Temp;Humidity;BMP_temperature;BMP_pressure;BME280_temperature;BME280_humidity;BME280_pressure;Samples;Min_cycle;Max_cycle;Signal;HPM_P1;HPM_P2
2022/01/20 00:01:40;;;;;;;61.17;35.50;;;;;;;;;;143729;578;46912;-82
2022/01/20 00:04:33;;;;;;;51.03;31.15;;;;;;;;;;143724;690;47021;-82
2022/01/20 00:07:28;;;;;;;45.35;27.85;;;;;;;;;;143729;587;46018;-82
2022/01/20 00:26:47;;;;;;;58.50;36.10;;;;;;;;;;143724;569;46020;-81
2022/01/20 00:29:21;;;;;;;55.58;34.65;;;;;;;;;;143728;594;46012;-81
2022/01/20 00:32:04;;;;;;;50.33;32.65;;;;;;;;;;143724;670;46036;-81
2022/01/20 00:34:54;;;;;;;33.38;19.27;;;;;;;;;;143727;719;47012;-81
2022/01/20 00:37:18;;;;;;;38.10;22.23;;;;;;;;;;143729;564;46047;-81
2022/01/20 00:40:02;;;;;;;28.58;14.82;;;;;;;;;;143730;645;46018;-83
2022/01/20 00:42:29;;;;;;;29.70;18.15;;;;;;;;;;143721;576;47022;-82
2022/01/20 00:44:56;;;;;;;28.15;17.87;;;;;;;;;;143729;613;46012;-83
2022/01/20 00:47:23;;;;;;;31.35;15.80;;;;;;;;;;143726;639;46021;-82
2022/01/20 00:49:50;;;;;;;23.90;16.05;;;;;;;;;;143730;718;46012;-82
2022/01/20 00:52:17;;;;;;;23.52;14.13;;;;;;;;;;143719;704;47022;-82
2022/01/20 00:54:44;;;;;;;20.58;11.50;;;;;;;;;;143729;611;46013;-82
2022/01/20 00:57:11;;;;;;;23.55;10.60;;;;;;;;;;143723;708;46020;-82
2022/01/20 00:59:38;;;;;;;20.62;10.60;;;;;;;;;;143731;645;46012;-82
2022/01/20 01:02:08;;;;;;;13.62;9.68;;;;;;;;;;143722;604;47022;-81
2022/01/20 01:04:38;;;;;;;25.12;15.52;;;;;;;;;;143730;609;46012;-82
2022/01/20 01:09:59;;;;;;;46.85;27.90;;;;;;;;;;143725;742;46023;-83
2022/01/20 01:12:44;;;;;;;47.28;28.27;;;;;;;;;;143727;569;46022;-80
2022/01/20 01:15:18;;;;;;;44.67;27.30;;;;;;;;;;143731;571;46012;-82
2022/01/20 01:20:33;;;;;;;38.97;21.92;;;;;;;;;;143730;601;46020;-81
2022/01/20 01:22:59;;;;;;;36.20;19.77;;;;;;;;;;143726;573;46022;-82
2022/01/20 01:25:26;;;;;;;39.08;20.45;;;;;;;;;;143728;575;46014;-81
2022/01/20 01:27:53;;;;;;;47.38;23.35;;;;;;;;;;143722;565;46020;-83
2022/01/20 01:30:33;;;;;;;41.60;24.75;;;;;;;;;;143727;570;46020;-83
2022/01/20 01:33:05;;;;;;;46.83;28.40;;;;;;;;;;143723;780;46023;-82
2022/01/20 01:35:33;;;;;;;45.63;27.60;;;;;;;;;;143728;630;46012;-81
2022/01/20 01:40:52;;;;;;;43.20;25.52;;;;;;;;;;143732;566;46020;-82
2022/01/20 01:43:25;;;;;;;41.40;24.67;;;;;;;;;;143730;684;47022;-81
2022/01/20 01:45:52;;;;;;;39.53;23.33;;;;;;;;;;143730;677;46012;-82
2022/01/20 01:48:25;;;;;;;39.55;22.55;;;;;;;;;;143727;666;46020;-84
2022/01/20 01:50:52;;;;;;;36.50;22.70;;;;;;;;;;143729;602;46018;-82
2022/01/20 01:53:19;;;;;;;34.97;19.67;;;;;;;;;;143723;693;47022;-81
2022/01/20 01:55:46;;;;;;;28.87;16.12;;;;;;;;;;143729;631;46020;-82
2022/01/20 01:58:13;;;;;;;29.55;15.38;;;;;;;;;;143725;690;46020;-83
2022/01/20 02:00:42;;;;;;;27.73;14.68;;;;;;;;;;143729;598;46013;-81
2022/01/20 02:03:09;;;;;;;25.33;15.00;;;;;;;;;;143723;649;47014;-82
2022/01/20 02:05:47;;;;;;;29.15;16.10;;;;;;;;;;143730;569;46020;-82
2022/01/20 02:19:28;;;;;;;18.10;10.68;;;;;;;;;;143726;565;47020;-81
2022/01/20 02:22:01;;;;;;;18.87;8.43;;;;;;;;;;143726;702;46020;-81
2022/01/20 02:24:29;;;;;;;18.60;12.02;;;;;;;;;;143724;611;46022;-82
2022/01/20 02:26:56;;;;;;;19.20;9.57;;;;;;;;;;143728;629;46020;-81
2022/01/20 02:29:25;;;;;;;14.90;8.35;;;;;;;;;;143725;628;47020;-81
2022/01/20 02:32:00;;;;;;;11.85;7.25;;;;;;;;;;143729;614;46021;-81
2022/01/20 02:34:30;;;;;;;12.07;5.60;;;;;;;;;;143727;627;46022;-82
2022/01/20 02:36:59;;;;;;;15.88;6.65;;;;;;;;;;143730;615;46012;-82
2022/01/20 02:45:14;;;;;;;26.45;12.63;;;;;;;;;;143726;670;46024;-82
2022/01/20 02:47:40;;;;;;;32.58;16.70;;;;;;;;;;143730;654;46012;-81
2022/01/20 02:50:08;;;;;;;19.17;12.57;;;;;;;;;;143721;689;46020;-81
2022/01/20 02:52:35;;;;;;;21.17;12.10;;;;;;;;;;143727;570;46013;-81
2022/01/20 02:55:02;;;;;;;18.92;10.50;;;;;;;;;;143728;572;46023;-82
2022/01/20 02:57:29;;;;;;;16.02;9.32;;;;;;;;;;143728;571;46020;-81
2022/01/20 02:59:56;;;;;;;17.98;8.70;;;;;;;;;;143725;595;46048;-82
2022/01/20 03:02:23;;;;;;;19.45;9.60;;;;;;;;;;143726;592;46012;-81
2022/01/20 03:04:51;;;;;;;19.20;10.88;;;;;;;;;;143723;555;47022;-82
2022/01/20 03:07:18;;;;;;;27.55;14.18;;;;;;;;;;143730;686;46028;-82
2022/01/20 03:09:44;;;;;;;23.48;12.20;;;;;;;;;;143725;696;47021;-81
2022/01/20 03:12:11;;;;;;;16.12;8.60;;;;;;;;;;143730;628;46012;-83
2022/01/20 03:14:38;;;;;;;14.18;7.07;;;;;;;;;;143721;589;47022;-82
2022/01/20 03:17:07;;;;;;;14.93;7.25;;;;;;;;;;143730;572;46012;-81
2022/01/20 03:19:34;;;;;;;13.38;5.95;;;;;;;;;;143727;631;46020;-82
2022/01/20 03:22:01;;;;;;;16.65;7.05;;;;;;;;;;143730;681;46019;-82
2022/01/20 03:24:28;;;;;;;14.27;7.30;;;;;;;;;;143728;564;46016;-82
2022/01/20 03:26:54;;;;;;;14.75;6.00;;;;;;;;;;143728;585;46012;-82
2022/01/20 03:29:21;;;;;;;13.48;6.85;;;;;;;;;;143723;669;46020;-81
2022/01/20 03:31:48;;;;;;;11.98;5.03;;;;;;;;;;143728;676;46012;-81
2022/01/20 03:34:15;;;;;;;13.73;7.30;;;;;;;;;;143721;678;47022;-81
2022/01/20 03:36:42;;;;;;;19.92;9.88;;;;;;;;;;143725;643;46013;-82
2022/01/20 03:39:09;;;;;;;22.35;12.50;;;;;;;;;;143725;626;46021;-82
2022/01/20 03:41:36;;;;;;;10.63;5.00;;;;;;;;;;143728;579;46012;-82
2022/01/20 03:44:03;;;;;;;15.40;9.65;;;;;;;;;;143723;689;47022;-81
2022/01/20 03:46:30;;;;;;;21.33;10.10;;;;;;;;;;143732;643;46012;-83
2022/01/20 03:49:07;;;;;;;13.45;7.10;;;;;;;;;;143725;707;46023;-81
2022/01/20 03:51:34;;;;;;;15.95;4.72;;;;;;;;;;143728;722;46019;-82
2022/01/20 03:54:01;;;;;;;10.32;5.45;;;;;;;;;;143724;575;46023;-81
2022/01/20 03:56:28;;;;;;;21.12;6.72;;;;;;;;;;143730;570;46012;-81
2022/01/20 03:58:54;;;;;;;15.38;6.18;;;;;;;;;;143729;626;46015;-81
2022/01/20 04:01:22;;;;;;;11.23;5.85;;;;;;;;;;143727;686;46013;-82
2022/01/20 04:03:49;;;;;;;12.85;6.25;;;;;;;;;;143727;628;46014;-82
2022/01/20 04:06:16;;;;;;;17.20;8.10;;;;;;;;;;143728;647;46020;-81
2022/01/20 04:08:45;;;;;;;16.62;8.80;;;;;;;;;;143727;601;46021;-81
2022/01/20 04:11:14;;;;;;;14.57;8.55;;;;;;;;;;143726;633;46045;-82
2022/01/20 04:13:41;;;;;;;14.45;8.05;;;;;;;;;;143723;584;46022;-81
2022/01/20 04:16:15;;;;;;;18.85;9.63;;;;;;;;;;143728;672;46012;-81
2022/01/20 04:18:56;;;;;;;17.85;9.00;;;;;;;;;;143724;646;46020;-81
2022/01/20 04:21:29;;;;;;;15.25;8.02;;;;;;;;;;143727;570;46020;-82
2022/01/20 04:24:04;;;;;;;17.23;9.85;;;;;;;;;;143725;582;46023;-82
2022/01/20 04:26:31;;;;;;;27.62;10.07;;;;;;;;;;143729;571;46020;-82
2022/01/20 04:28:58;;;;;;;41.67;18.35;;;;;;;;;;143724;564;46015;-82
2022/01/20 04:31:26;;;;;;;42.30;16.02;;;;;;;;;;143727;602;46012;-82
2022/01/20 04:33:56;;;;;;;26.50;14.00;;;;;;;;;;143725;682;46022;-81
2022/01/20 04:36:24;;;;;;;25.37;13.25;;;;;;;;;;143726;698;46013;-82
2022/01/20 04:38:50;;;;;;;23.52;12.10;;;;;;;;;;143726;679;46020;-82
2022/01/20 04:41:17;;;;;;;28.92;13.40;;;;;;;;;;143725;564;46020;-81
2022/01/20 04:43:44;;;;;;;49.67;26.23;;;;;;;;;;143725;587;47022;-82
2022/01/20 04:46:20;;;;;;;39.55;21.02;;;;;;;;;;143728;608;46020;-81
2022/01/20 04:49:11;;;;;;;68.40;35.08;;;;;;;;;;143723;583;46020;-81
2022/01/20 04:57:30;;;;;;;24.20;14.25;;;;;;;;;;143730;680;46020;-81
2022/01/20 04:59:57;;;;;;;28.05;16.15;;;;;;;;;;143725;570;46021;-81
2022/01/20 05:02:27;;;;;;;28.38;17.15;;;;;;;;;;143727;621;46047;-82
2022/01/20 05:04:55;;;;;;;45.20;18.40;;;;;;;;;;143727;583;46014;-82
2022/01/20 05:07:29;;;;;;;38.08;20.77;;;;;;;;;;143732;597;46044;-81
2022/01/20 05:09:57;;;;;;;35.88;19.48;;;;;;;;;;143722;636;47020;-81
2022/01/20 05:12:49;;;;;;;38.53;20.85;;;;;;;;;;143731;577;46012;-82
2022/01/20 05:15:14;;;;;;;42.22;23.35;;;;;;;;;;143728;646;46014;-82
2022/01/20 05:17:41;;;;;;;34.60;22.13;;;;;;;;;;143727;682;46012;-80
2022/01/20 05:20:09;;;;;;;34.80;19.35;;;;;;;;;;143725;593;46020;-81
2022/01/20 05:22:36;;;;;;;26.77;15.43;;;;;;;;;;143730;653;46018;-82
2022/01/20 05:25:03;;;;;;;23.25;13.82;;;;;;;;;;143727;591;46022;-81
2022/01/20 05:27:32;;;;;;;54.55;40.05;;;;;;;;;;143732;591;46020;-83
2022/01/20 05:29:59;;;;;;;40.85;29.98;;;;;;;;;;143725;593;46021;-81
2022/01/20 05:32:26;;;;;;;31.00;20.05;;;;;;;;;;143729;732;46012;-82
2022/01/20 05:34:53;;;;;;;23.50;17.42;;;;;;;;;;143726;667;46022;-82
2022/01/20 05:37:21;;;;;;;30.17;18.00;;;;;;;;;;143731;570;46013;-81
2022/01/20 05:39:48;;;;;;;33.28;23.45;;;;;;;;;;143726;573;46020;-82
2022/01/20 05:42:14;;;;;;;31.25;18.60;;;;;;;;;;143729;636;46012;-83
2022/01/20 05:44:42;;;;;;;29.35;18.55;;;;;;;;;;143726;593;46022;-82
2022/01/20 05:47:11;;;;;;;22.05;15.27;;;;;;;;;;143729;581;46012;-82
2022/01/20 05:49:38;;;;;;;20.15;14.52;;;;;;;;;;143727;563;46020;-83
2022/01/20 05:52:08;;;;;;;25.08;17.95;;;;;;;;;;143731;633;46013;-82
2022/01/20 05:54:36;;;;;;;30.88;17.27;;;;;;;;;;143725;610;47022;-81
2022/01/20 05:57:03;;;;;;;24.08;18.40;;;;;;;;;;143729;587;46012;-83
2022/01/20 05:59:30;;;;;;;33.15;19.75;;;;;;;;;;143727;581;46021;-81
2022/01/20 06:02:02;;;;;;;32.08;17.70;;;;;;;;;;143732;591;46018;-81
2022/01/20 06:04:28;;;;;;;32.42;15.68;;;;;;;;;;143728;595;46022;-82
2022/01/20 06:06:56;;;;;;;31.67;18.98;;;;;;;;;;143730;576;46013;-82
2022/01/20 06:09:22;;;;;;;34.05;18.73;;;;;;;;;;143724;597;47020;-82
2022/01/20 06:11:50;;;;;;;43.00;22.65;;;;;;;;;;143728;578;46012;-81
2022/01/20 06:14:17;;;;;;;38.58;23.02;;;;;;;;;;143728;586;46021;-81
2022/01/20 06:16:43;;;;;;;39.38;25.92;;;;;;;;;;143731;656;46012;-81
2022/01/20 06:19:10;;;;;;;39.13;22.87;;;;;;;;;;143724;663;46020;-81
2022/01/20 06:21:41;;;;;;;54.80;27.20;;;;;;;;;;143730;566;46018;-81
2022/01/20 06:24:08;;;;;;;55.05;34.13;;;;;;;;;;143727;630;46023;-81
2022/01/20 06:26:34;;;;;;;41.05;22.85;;;;;;;;;;143731;580;46012;-81
2022/01/20 06:29:01;;;;;;;34.08;20.35;;;;;;;;;;143726;603;46021;-82
2022/01/20 06:31:29;;;;;;;41.13;21.67;;;;;;;;;;143731;593;46018;-81
2022/01/20 06:33:55;;;;;;;44.88;22.62;;;;;;;;;;143725;609;46022;-80
2022/01/20 06:36:22;;;;;;;40.08;21.27;;;;;;;;;;143727;586;46021;-83
2022/01/20 06:38:49;;;;;;;122.05;58.80;;;;;;;;;;143725;630;46020;-83
2022/01/20 06:41:17;;;;;;;59.40;34.22;;;;;;;;;;143729;571;46020;-82
2022/01/20 06:43:44;;;;;;;46.90;25.27;;;;;;;;;;143726;588;47022;-83
2022/01/20 06:46:11;;;;;;;29.20;18.35;;;;;;;;;;143729;592;46012;-83
2022/01/20 06:48:38;;;;;;;27.45;14.77;;;;;;;;;;143728;656;46020;-82
2022/01/20 06:51:04;;;;;;;22.65;12.57;;;;;;;;;;143729;631;46013;-82
2022/01/20 06:53:31;;;;;;;29.58;14.68;;;;;;;;;;143725;585;47023;-82
2022/01/20 06:55:58;;;;;;;30.83;19.83;;;;;;;;;;143729;579;46012;-82
2022/01/20 06:58:25;;;;;;;38.53;21.92;;;;;;;;;;143723;664;46021;-83
2022/01/20 07:00:52;;;;;;;36.50;21.08;;;;;;;;;;143730;608;46021;-84
2022/01/20 07:03:19;;;;;;;35.97;22.02;;;;;;;;;;143724;614;47022;-83
2022/01/20 07:05:46;;;;;;;37.97;22.33;;;;;;;;;;143730;590;46013;-82
2022/01/20 07:08:13;;;;;;;52.53;29.95;;;;;;;;;;143726;570;46021;-83
2022/01/20 07:10:40;;;;;;;73.57;38.42;;;;;;;;;;143729;616;46020;-83
2022/01/20 07:13:07;;;;;;;69.10;38.38;;;;;;;;;;143728;570;46022;-83
2022/01/20 07:15:35;;;;;;;59.60;36.72;;;;;;;;;;143733;689;47020;-81
2022/01/20 07:18:03;;;;;;;66.07;36.17;;;;;;;;;;143728;655;46020;-83
2022/01/20 07:20:30;;;;;;;56.78;33.08;;;;;;;;;;143731;683;46013;-83
2022/01/20 07:22:56;;;;;;;63.05;31.92;;;;;;;;;;143724;569;47023;-82
2022/01/20 07:25:23;;;;;;;46.90;26.12;;;;;;;;;;143730;585;46021;-82
2022/01/20 07:27:50;;;;;;;37.38;22.35;;;;;;;;;;143725;589;47020;-83
2022/01/20 07:30:18;;;;;;;34.88;20.83;;;;;;;;;;143733;577;46018;-82
2022/01/20 07:32:46;;;;;;;34.00;20.00;;;;;;;;;;143725;569;47022;-82
2022/01/20 07:35:13;;;;;;;43.67;19.50;;;;;;;;;;143729;626;46013;-83
2022/01/20 07:37:40;;;;;;;29.52;18.05;;;;;;;;;;143730;574;46014;-84
2022/01/20 07:40:08;;;;;;;34.70;17.52;;;;;;;;;;143732;670;47012;-82
2022/01/20 07:42:36;;;;;;;31.33;17.50;;;;;;;;;;143725;566;46022;-82
2022/01/20 07:45:03;;;;;;;39.63;19.05;;;;;;;;;;143727;564;46012;-83
2022/01/20 07:47:31;;;;;;;24.52;14.77;;;;;;;;;;143725;625;46020;-83
2022/01/20 07:49:58;;;;;;;28.73;15.65;;;;;;;;;;143729;663;46013;-83
2022/01/20 07:52:25;;;;;;;30.52;14.30;;;;;;;;;;143728;564;46014;-83
2022/01/20 07:54:52;;;;;;;29.37;14.90;;;;;;;;;;143735;655;45914;-83
2022/01/20 07:57:18;;;;;;;29.58;14.40;;;;;;;;;;143726;735;46020;-84
2022/01/20 07:59:45;;;;;;;31.23;13.38;;;;;;;;;;143729;690;46021;-84
2022/01/20 08:02:12;;;;;;;23.83;13.38;;;;;;;;;;143724;677;47048;-83
2022/01/20 08:04:50;;;;;;;20.33;13.62;;;;;;;;;;143727;566;46012;-84
2022/01/20 08:07:18;;;;;;;17.67;10.00;;;;;;;;;;143726;609;46021;-81
2022/01/20 08:09:45;;;;;;;25.92;12.27;;;;;;;;;;143729;639;46020;-82
2022/01/20 08:12:12;;;;;;;18.55;10.60;;;;;;;;;;143725;749;46022;-82
2022/01/20 08:14:40;;;;;;;28.70;12.75;;;;;;;;;;143733;583;46013;-83
2022/01/20 08:17:13;;;;;;;20.77;11.27;;;;;;;;;;143726;577;46020;-83
2022/01/20 08:19:39;;;;;;;25.10;10.65;;;;;;;;;;143729;726;46018;-84
2022/01/20 08:22:07;;;;;;;21.27;11.55;;;;;;;;;;143727;664;46023;-82
2022/01/20 08:24:36;;;;;;;18.62;9.75;;;;;;;;;;143730;643;46012;-83
2022/01/20 08:27:05;;;;;;;21.00;10.15;;;;;;;;;;143724;662;47020;-82
2022/01/20 08:29:31;;;;;;;18.40;9.07;;;;;;;;;;143731;651;46013;-82
2022/01/20 08:31:58;;;;;;;17.05;10.60;;;;;;;;;;143726;647;46022;-81
2022/01/20 08:34:25;;;;;;;16.42;10.02;;;;;;;;;;143722;605;47020;-81
2022/01/20 08:36:55;;;;;;;19.10;9.75;;;;;;;;;;143725;597;46021;-82
2022/01/20 08:42:18;;;;;;;20.37;8.95;;;;;;;;;;143730;576;46015;-82
2022/01/20 08:44:45;;;;;;;22.37;10.60;;;;;;;;;;143729;615;46014;-82
2022/01/20 08:47:19;;;;;;;25.67;11.25;;;;;;;;;;143727;569;46020;-81
2022/01/20 08:49:50;;;;;;;22.45;10.10;;;;;;;;;;143728;582;46013;-82
2022/01/20 08:52:17;;;;;;;31.60;10.23;;;;;;;;;;143729;586;46014;-83
2022/01/20 08:54:45;;;;;;;22.75;12.48;;;;;;;;;;143731;625;46012;-82
2022/01/20 08:57:12;;;;;;;27.73;9.88;;;;;;;;;;143725;619;47020;-81
2022/01/20 08:59:42;;;;;;;16.85;9.52;;;;;;;;;;143730;586;46018;-81
2022/01/20 09:02:11;;;;;;;27.95;10.10;;;;;;;;;;143725;605;46022;-82
2022/01/20 09:04:39;;;;;;;19.15;9.77;;;;;;;;;;143728;595;46020;-83
2022/01/20 09:07:10;;;;;;;24.33;9.57;;;;;;;;;;143727;598;46014;-82
2022/01/20 09:09:42;;;;;;;27.27;10.10;;;;;;;;;;143728;574;46018;-81
2022/01/20 09:17:44;;;;;;;22.08;13.43;;;;;;;;;;143727;577;46020;-82
2022/01/20 09:20:11;;;;;;;15.38;9.57;;;;;;;;;;143730;598;46013;-81
2022/01/20 09:22:38;;;;;;;18.92;8.73;;;;;;;;;;143727;571;46014;-82
2022/01/20 09:25:07;;;;;;;27.67;13.75;;;;;;;;;;143730;590;46012;-81
2022/01/20 09:27:34;;;;;;;24.83;15.82;;;;;;;;;;143724;564;46021;-82
2022/01/20 09:30:04;;;;;;;28.60;14.73;;;;;;;;;;143728;584;46012;-83
2022/01/20 09:32:34;;;;;;;28.65;13.00;;;;;;;;;;143725;572;46022;-83
2022/01/20 09:35:01;;;;;;;17.55;10.07;;;;;;;;;;143731;590;46013;-82
2022/01/20 09:37:28;;;;;;;19.67;8.63;;;;;;;;;;143725;600;46021;-83
2022/01/20 09:39:56;;;;;;;25.62;9.75;;;;;;;;;;143728;594;46012;-82
2022/01/20 09:42:25;;;;;;;21.58;8.48;;;;;;;;;;143726;636;46022;-82
2022/01/20 09:44:53;;;;;;;14.65;7.28;;;;;;;;;;143730;564;46012;-82
2022/01/20 09:47:20;;;;;;;13.77;9.00;;;;;;;;;;143726;609;46020;-82
2022/01/20 09:49:47;;;;;;;19.75;9.18;;;;;;;;;;143730;571;46020;-81
2022/01/20 09:52:14;;;;;;;22.27;10.35;;;;;;;;;;143724;600;47023;-81
2022/01/20 09:54:44;;;;;;;26.23;11.55;;;;;;;;;;143730;653;46012;-81
2022/01/20 09:57:17;;;;;;;17.92;10.23;;;;;;;;;;143729;622;46020;-82
2022/01/20 10:00:03;;;;;;;27.00;10.80;;;;;;;;;;143730;570;46012;-83
2022/01/20 10:02:34;;;;;;;29.30;11.68;;;;;;;;;;143728;572;47020;-83
2022/01/20 10:05:01;;;;;;;22.98;9.95;;;;;;;;;;143730;610;46021;-83
2022/01/20 10:07:35;;;;;;;18.65;9.95;;;;;;;;;;143724;569;46020;-83
2022/01/20 10:10:40;;;;;;;17.23;10.80;;;;;;;;;;143726;613;46035;-83
2022/01/20 10:13:08;;;;;;;20.52;10.27;;;;;;;;;;143723;572;47021;-83
2022/01/20 10:15:35;;;;;;;23.55;12.10;;;;;;;;;;143726;585;46012;-83
2022/01/20 10:18:07;;;;;;;21.55;11.48;;;;;;;;;;143721;628;46020;-83
2022/01/20 10:20:38;;;;;;;26.48;11.38;;;;;;;;;;143728;676;46012;-82
2022/01/20 10:23:05;;;;;;;16.08;8.82;;;;;;;;;;143727;597;46022;-82
2022/01/20 10:25:35;;;;;;;20.25;9.30;;;;;;;;;;143731;618;46012;-84
2022/01/20 10:28:02;;;;;;;16.30;8.43;;;;;;;;;;143725;564;46015;-84
2022/01/20 10:30:30;;;;;;;19.65;9.82;;;;;;;;;;143726;614;46020;-83
2022/01/20 10:33:00;;;;;;;24.40;10.38;;;;;;;;;;143723;700;47022;-83
2022/01/20 10:35:32;;;;;;;19.92;9.13;;;;;;;;;;143730;590;46013;-82
2022/01/20 10:38:13;;;;;;;14.98;8.55;;;;;;;;;;143724;681;46020;-83
2022/01/20 10:40:56;;;;;;;19.70;8.80;;;;;;;;;;143729;583;46012;-82
2022/01/20 10:43:25;;;;;;;23.20;11.55;;;;;;;;;;143723;594;46023;-83
2022/01/20 10:46:10;;;;;;;21.83;8.77;;;;;;;;;;143727;566;46012;-83
2022/01/20 10:48:38;;;;;;;20.80;9.23;;;;;;;;;;143724;588;46020;-82
2022/01/20 10:51:24;;;;;;;22.35;8.35;;;;;;;;;;143728;578;46013;-81
2022/01/20 10:54:01;;;;;;;21.70;8.35;;;;;;;;;;143726;614;46024;-83
2022/01/20 10:56:28;;;;;;;15.73;8.30;;;;;;;;;;143728;591;46012;-83
2022/01/20 10:59:05;;;;;;;15.55;9.00;;;;;;;;;;143724;566;46021;-82
2022/01/20 11:01:32;;;;;;;17.37;9.98;;;;;;;;;;143727;592;46020;-83
2022/01/20 11:04:00;;;;;;;15.52;8.23;;;;;;;;;;143722;565;47022;-83
2022/01/20 11:06:28;;;;;;;14.48;9.60;;;;;;;;;;143726;565;46012;-83
2022/01/20 11:08:57;;;;;;;20.12;11.12;;;;;;;;;;143723;619;46020;-82
2022/01/20 11:11:24;;;;;;;21.85;11.98;;;;;;;;;;143724;569;46020;-82
2022/01/20 11:13:54;;;;;;;14.87;8.15;;;;;;;;;;143726;569;46016;-83
2022/01/20 11:16:21;;;;;;;16.17;9.63;;;;;;;;;;143723;564;47012;-84
2022/01/20 11:18:49;;;;;;;16.65;9.98;;;;;;;;;;143722;573;46020;-83
2022/01/20 11:21:26;;;;;;;15.55;10.20;;;;;;;;;;143725;578;46021;-84
2022/01/20 11:23:53;;;;;;;16.52;8.60;;;;;;;;;;143723;588;47022;-85
2022/01/20 11:26:20;;;;;;;14.10;8.60;;;;;;;;;;143728;570;46021;-85
2022/01/20 11:28:59;;;;;;;15.25;9.98;;;;;;;;;;143727;655;46015;-85
2022/01/20 11:31:34;;;;;;;18.92;11.93;;;;;;;;;;143725;602;46031;-83
2022/01/20 11:34:02;;;;;;;26.33;12.73;;;;;;;;;;143722;569;47022;-83
2022/01/20 11:36:31;;;;;;;10.60;2.95;;;;;;;;;;143730;635;46012;-83
2022/01/20 11:39:05;;;;;;;9.25;5.95;;;;;;;;;;143726;614;46020;-84
2022/01/20 11:41:40;;;;;;;;;;;;;;;;;;143731;980;46013;-83
2022/01/20 11:44:15;;;;;;;3.33;1.85;;;;;;;;;;143732;579;46023;-84
2022/01/20 11:46:44;;;;;;;17.60;9.07;;;;;;;;;;143730;587;46043;-83
2022/01/20 11:49:13;;;;;;;14.20;8.90;;;;;;;;;;143724;576;46021;-83
2022/01/20 11:51:59;;;;;;;19.62;7.80;;;;;;;;;;143727;582;46020;-83
2022/01/20 11:54:34;;;;;;;16.92;7.72;;;;;;;;;;143727;614;46022;-83
2022/01/20 11:57:09;;;;;;;17.65;7.78;;;;;;;;;;143725;625;46021;-81
2022/01/20 12:00:06;;;;;;;10.05;5.78;;;;;;;;;;143723;622;46020;-82
2022/01/20 12:02:40;;;;;;;8.20;5.80;;;;;;;;;;143727;620;46012;-83
2022/01/20 12:05:27;;;;;;;10.88;4.70;;;;;;;;;;143723;579;46023;-82
2022/01/20 12:08:25;;;;;;;6.50;2.90;;;;;;;;;;143729;591;46020;-81
2022/01/20 12:11:00;;;;;;;3.20;1.75;;;;;;;;;;143728;564;46015;-82
2022/01/20 12:13:28;;;;;;;3.90;2.05;;;;;;;;;;143726;594;46012;-82
2022/01/20 12:15:58;;;;;;;3.33;1.87;;;;;;;;;;143724;575;47022;-83
2022/01/20 12:18:25;;;;;;;4.22;2.55;;;;;;;;;;143729;576;46013;-83
2022/01/20 12:20:52;;;;;;;3.80;2.47;;;;;;;;;;143725;571;46021;-83
2022/01/20 12:23:25;;;;;;;3.70;1.40;;;;;;;;;;143731;615;46018;-82
2022/01/20 12:26:01;;;;;;;7.25;3.00;;;;;;;;;;143723;636;47022;-83
2022/01/20 12:28:27;;;;;;;5.72;2.78;;;;;;;;;;143726;588;46012;-82
2022/01/20 12:31:01;;;;;;;4.32;2.92;;;;;;;;;;143724;574;46020;-85
2022/01/20 12:33:31;;;;;;;4.45;2.90;;;;;;;;;;143729;601;46019;-83
2022/01/20 12:36:04;;;;;;;5.87;3.60;;;;;;;;;;143728;612;46023;-82
2022/01/20 12:38:36;;;;;;;7.10;3.45;;;;;;;;;;143728;571;46012;-83
2022/01/20 12:41:12;;;;;;;4.87;2.25;;;;;;;;;;143725;704;46021;-81
2022/01/20 12:43:51;;;;;;;2.78;1.77;;;;;;;;;;143727;587;46012;-83
2022/01/20 12:46:21;;;;;;;4.05;2.65;;;;;;;;;;143721;584;47012;-81
2022/01/20 12:49:16;;;;;;;7.32;3.50;;;;;;;;;;143725;574;46013;-80
2022/01/20 12:51:54;;;;;;;3.05;1.87;;;;;;;;;;143725;593;46012;-82
2022/01/20 12:54:32;;;;;;;4.90;1.80;;;;;;;;;;143727;596;46012;-82
2022/01/20 12:57:11;;;;;;;3.37;1.90;;;;;;;;;;143724;675;46033;-82
2022/01/20 12:59:40;;;;;;;4.93;2.60;;;;;;;;;;143722;607;46020;-83
2022/01/20 13:02:10;;;;;;;6.53;2.83;;;;;;;;;;143725;586;46020;-81
2022/01/20 13:04:38;;;;;;;3.62;2.17;;;;;;;;;;143724;569;46013;-81
2022/01/20 13:07:08;;;;;;;6.47;2.60;;;;;;;;;;143724;579;46022;-81
2022/01/20 13:09:53;;;;;;;5.28;2.30;;;;;;;;;;143727;618;46020;-81
2022/01/20 13:12:35;;;;;;;5.93;2.00;;;;;;;;;;143724;613;46020;-82
2022/01/20 13:15:03;;;;;;;9.95;4.75;;;;;;;;;;143728;605;46012;-82
2022/01/20 13:17:34;;;;;;;4.80;2.47;;;;;;;;;;143722;570;46022;-81
2022/01/20 13:20:11;;;;;;;4.07;2.97;;;;;;;;;;143727;564;46012;-82
2022/01/20 13:22:56;;;;;;;4.60;2.42;;;;;;;;;;143724;608;46020;-82
2022/01/20 13:25:29;;;;;;;4.87;2.80;;;;;;;;;;143727;584;46019;-82
2022/01/20 13:28:18;;;;;;;5.03;1.90;;;;;;;;;;143726;640;46012;-82
2022/01/20 13:30:50;;;;;;;4.70;2.33;;;;;;;;;;143726;612;46012;-82
2022/01/20 13:33:30;;;;;;;4.95;2.35;;;;;;;;;;143725;601;46021;-83
2022/01/20 13:36:02;;;;;;;5.78;1.87;;;;;;;;;;143724;615;46020;-81
2022/01/20 13:38:40;;;;;;;6.55;2.35;;;;;;;;;;143727;588;46022;-82
2022/01/20 13:41:38;;;;;;;2.85;1.55;;;;;;;;;;143727;638;46013;-84
2022/01/20 13:47:09;;;;;;;4.75;2.20;;;;;;;;;;143727;573;46012;-83
2022/01/20 13:49:48;;;;;;;11.75;6.78;;;;;;;;;;143723;575;46023;-84
2022/01/20 13:52:18;;;;;;;14.50;10.40;;;;;;;;;;143726;609;46012;-82
2022/01/20 13:54:48;;;;;;;15.52;8.95;;;;;;;;;;143723;564;46020;-84
2022/01/20 13:57:16;;;;;;;16.92;7.35;;;;;;;;;;143726;588;46046;-84
2022/01/20 13:59:56;;;;;;;18.83;7.47;;;;;;;;;;143725;617;47022;-84
2022/01/20 14:02:25;;;;;;;7.15;4.82;;;;;;;;;;143727;594;46020;-84
2022/01/20 14:04:52;;;;;;;17.25;7.12;;;;;;;;;;143724;635;46021;-84
2022/01/20 14:07:20;;;;;;;12.10;5.25;;;;;;;;;;143727;582;46018;-83
2022/01/20 14:09:48;;;;;;;36.22;19.08;;;;;;;;;;143725;646;46022;-84
2022/01/20 14:12:15;;;;;;;18.55;6.93;;;;;;;;;;143724;647;46020;-84
2022/01/20 14:14:42;;;;;;;8.95;5.82;;;;;;;;;;143724;613;46020;-85
2022/01/20 14:17:20;;;;;;;15.93;7.50;;;;;;;;;;143727;594;46019;-84
2022/01/20 14:19:54;;;;;;;16.83;10.18;;;;;;;;;;143722;606;47023;-85
2022/01/20 14:22:21;;;;;;;16.42;9.32;;;;;;;;;;143726;569;46012;-86
2022/01/20 14:24:51;;;;;;;18.00;10.55;;;;;;;;;;143727;578;46020;-85
2022/01/20 14:27:22;;;;;;;24.60;11.20;;;;;;;;;;143729;634;46012;-84
2022/01/20 14:29:49;;;;;;;18.15;9.65;;;;;;;;;;143723;689;46020;-83
2022/01/20 14:32:16;;;;;;;17.40;9.52;;;;;;;;;;143724;564;46013;-82
2022/01/20 14:34:52;;;;;;;17.00;7.40;;;;;;;;;;143724;581;46037;-84
2022/01/20 14:37:19;;;;;;;25.25;13.15;;;;;;;;;;143721;638;47012;-84
2022/01/20 14:39:46;;;;;;;26.92;14.00;;;;;;;;;;143722;640;47022;-83
2022/01/20 14:42:17;;;;;;;25.80;12.23;;;;;;;;;;143728;585;46012;-84
2022/01/20 14:44:47;;;;;;;29.10;13.13;;;;;;;;;;143724;562;46020;-83
2022/01/20 14:47:15;;;;;;;30.83;12.55;;;;;;;;;;143727;566;46019;-83
2022/01/20 14:49:42;;;;;;;20.08;11.52;;;;;;;;;;143722;579;46050;-83
2022/01/20 14:52:09;;;;;;;16.35;9.27;;;;;;;;;;143728;600;46020;-83
2022/01/20 14:54:39;;;;;;;23.02;13.73;;;;;;;;;;143726;567;46021;-83
2022/01/20 14:57:08;;;;;;;17.80;13.20;;;;;;;;;;143728;662;46021;-83
2022/01/20 14:59:35;;;;;;;22.52;14.20;;;;;;;;;;143719;578;47022;-83
2022/01/20 15:02:02;;;;;;;25.75;16.77;;;;;;;;;;143724;605;46020;-84
2022/01/20 15:04:29;;;;;;;28.10;16.42;;;;;;;;;;143722;593;46021;-85
2022/01/20 15:06:57;;;;;;;27.87;17.00;;;;;;;;;;143727;592;46012;-84
2022/01/20 15:09:24;;;;;;;26.90;16.33;;;;;;;;;;143722;672;46022;-83
2022/01/20 15:11:51;;;;;;;27.75;14.98;;;;;;;;;;143725;659;46012;-84
2022/01/20 15:14:18;;;;;;;40.03;23.25;;;;;;;;;;143726;641;46020;-86
2022/01/20 15:16:45;;;;;;;42.30;27.30;;;;;;;;;;143728;660;46013;-85
2022/01/20 15:19:13;;;;;;;30.05;20.65;;;;;;;;;;143725;596;46023;-84
2022/01/20 15:21:47;;;;;;;28.58;19.95;;;;;;;;;;143730;586;45020;-85
2022/01/20 15:24:14;;;;;;;31.45;20.37;;;;;;;;;;143722;583;46021;-84
2022/01/20 15:26:42;;;;;;;38.47;22.00;;;;;;;;;;143723;570;47021;-85
2022/01/20 15:29:09;;;;;;;39.58;25.83;;;;;;;;;;143722;582;47022;-84
2022/01/20 15:31:36;;;;;;;35.95;24.27;;;;;;;;;;143729;569;46013;-86
2022/01/20 15:34:06;;;;;;;44.17;29.25;;;;;;;;;;143723;590;46021;-85
2022/01/20 15:36:34;;;;;;;43.70;31.50;;;;;;;;;;143728;583;46012;-85
2022/01/20 15:39:03;;;;;;;68.47;51.60;;;;;;;;;;143726;605;46022;-84
2022/01/20 15:41:31;;;;;;;65.53;41.55;;;;;;;;;;143724;576;46020;-85